createdAt,value
2022-11-19T00:02:51.402Z,6
2022-11-19T00:07:51.533Z,5
2022-11-19T00:12:52.031Z,6
2022-11-19T00:17:51.382Z,5
2022-11-19T00:22:51.392Z,5
2022-11-19T00:27:51.451Z,5
2022-11-19T00:32:51.205Z,6
2022-11-19T00:37:50.911Z,5
2022-11-19T00:42:50.951Z,4
2022-11-19T00:47:51.022Z,4
2022-11-19T00:52:51.467Z,6
2022-11-19T00:57:52.105Z,6
2022-11-19T01:02:51.013Z,5
2022-11-19T01:07:51.488Z,5
2022-11-19T01:12:51.507Z,5
2022-11-19T01:17:51.505Z,5
2022-11-19T01:22:51.498Z,6
2022-11-19T01:27:51.614Z,5
2022-11-19T01:32:51.549Z,5
2022-11-19T01:37:51.075Z,5
2022-11-19T01:42:52.230Z,5
2022-11-19T01:47:52.170Z,4
2022-11-19T01:52:51.078Z,6
2022-11-19T01:57:51.588Z,6
2022-11-19T02:02:51.581Z,6
2022-11-19T02:07:51.657Z,5
2022-11-19T02:12:51.622Z,5
2022-11-19T02:17:52.458Z,6
2022-11-19T02:22:52.245Z,9
2022-11-19T02:27:51.658Z,8
2022-11-19T02:32:51.198Z,7
2022-11-19T02:37:51.163Z,6
2022-11-19T02:42:53.466Z,6
2022-11-19T02:47:51.246Z,6
2022-11-19T02:52:51.215Z,6
2022-11-19T02:57:51.784Z,6
2022-11-19T03:02:51.245Z,6
2022-11-19T03:07:51.259Z,5
2022-11-19T03:12:52.454Z,5
2022-11-19T03:17:51.922Z,6
2022-11-19T03:22:52.343Z,5
2022-11-19T03:27:52.376Z,5
2022-11-19T03:32:51.938Z,4
2022-11-19T03:37:51.885Z,5
2022-11-19T03:42:51.255Z,5
2022-11-19T03:47:51.929Z,4
2022-11-19T03:52:51.275Z,4
2022-11-19T03:57:52.514Z,4
2022-11-19T04:02:51.947Z,5
2022-11-19T04:07:52.000Z,5
2022-11-19T04:12:51.946Z,5
2022-11-19T04:17:52.541Z,5
2022-11-19T04:22:51.949Z,6
2022-11-19T04:27:51.977Z,6
2022-11-19T04:32:51.960Z,6
2022-11-19T04:37:51.399Z,6
2022-11-19T04:42:51.380Z,6
2022-11-19T04:47:52.490Z,7
2022-11-19T04:52:52.085Z,8
2022-11-19T04:57:51.386Z,9
2022-11-19T05:02:52.494Z,8
2022-11-19T05:07:52.528Z,8
2022-11-19T05:12:51.943Z,9
2022-11-19T05:17:51.440Z,15
2022-11-19T05:22:51.970Z,12
2022-11-19T05:27:52.076Z,7
2022-11-19T05:32:52.605Z,6
2022-11-19T05:37:51.460Z,7
2022-11-19T05:42:51.466Z,7
2022-11-19T05:47:51.599Z,7
2022-11-19T05:52:52.245Z,8
2022-11-19T05:57:52.781Z,8
2022-11-19T06:02:52.171Z,10
2022-11-19T06:07:52.197Z,8
2022-11-19T06:12:52.158Z,8
2022-11-19T06:17:51.522Z,9
2022-11-19T06:22:52.789Z,9
2022-11-19T06:27:51.575Z,10
2022-11-19T06:32:52.172Z,7
2022-11-19T06:37:51.617Z,8
2022-11-19T06:42:51.566Z,8
2022-11-19T06:47:52.495Z,10
2022-11-19T06:52:52.816Z,10
2022-11-19T06:57:52.195Z,7
2022-11-19T07:02:52.854Z,9
2022-11-19T07:07:52.896Z,8
2022-11-19T07:12:52.261Z,8
2022-11-19T07:17:52.255Z,10
2022-11-19T07:22:56.220Z,9
2022-11-19T07:27:52.216Z,8
2022-11-19T07:32:52.362Z,9
2022-11-19T07:37:51.706Z,9
2022-11-19T07:42:51.777Z,10
2022-11-19T07:47:51.764Z,9
2022-11-19T07:52:52.396Z,10
2022-11-19T07:57:55.249Z,9
2022-11-19T08:02:51.708Z,11
2022-11-19T08:07:52.846Z,9
2022-11-19T08:12:51.726Z,9
2022-11-19T08:17:52.294Z,9
2022-11-19T08:22:51.866Z,9
2022-11-19T08:27:52.334Z,9
2022-11-19T08:32:52.270Z,9
2022-11-19T08:37:52.272Z,9
2022-11-19T08:42:52.246Z,8
2022-11-19T08:47:52.367Z,7
2022-11-19T08:52:51.787Z,7
2022-11-19T08:57:52.960Z,8
2022-11-19T09:02:52.468Z,7
2022-11-19T09:07:52.401Z,8
2022-11-19T09:12:52.576Z,6
2022-11-19T09:17:52.960Z,8
2022-11-19T09:22:52.990Z,6
2022-11-19T09:27:52.437Z,7
2022-11-19T09:32:57.199Z,6
2022-11-19T09:37:51.897Z,6
2022-11-19T09:42:52.388Z,6
2022-11-19T09:47:53.010Z,5
2022-11-19T09:52:51.914Z,5
2022-11-19T09:57:52.474Z,5
2022-11-19T10:02:53.238Z,7
2022-11-19T10:07:51.947Z,6
2022-11-19T10:12:52.555Z,5
2022-11-19T10:17:52.460Z,5
2022-11-19T10:22:57.300Z,5
2022-11-19T10:27:52.490Z,5
2022-11-19T10:32:52.520Z,5
2022-11-19T10:37:51.982Z,6
2022-11-19T10:42:52.031Z,4
2022-11-19T10:47:52.522Z,5
2022-11-19T10:52:52.404Z,5
2022-11-19T10:57:53.207Z,4
2022-11-19T11:02:53.247Z,4
2022-11-19T11:07:52.137Z,3
2022-11-19T11:12:53.299Z,3
2022-11-19T11:17:52.652Z,3
2022-11-19T11:22:53.260Z,3
2022-11-19T11:27:53.300Z,3
2022-11-19T11:32:52.718Z,3
2022-11-19T11:37:52.085Z,3
2022-11-19T11:42:52.119Z,4
2022-11-19T11:47:53.038Z,3
2022-11-19T11:52:52.793Z,2
2022-11-19T11:57:53.421Z,3
2022-11-19T12:02:52.725Z,4
2022-11-19T12:07:53.415Z,3
2022-11-19T12:12:53.282Z,3
2022-11-19T12:17:52.818Z,3
2022-11-19T12:22:52.802Z,3
2022-11-19T12:27:53.452Z,4
2022-11-19T12:32:52.808Z,3
2022-11-19T12:37:52.194Z,3
2022-11-19T12:42:53.595Z,3
2022-11-19T12:47:52.282Z,4
2022-11-19T12:52:52.244Z,3
2022-11-19T12:57:52.845Z,2
2022-11-19T13:02:54.717Z,3
2022-11-19T13:07:52.261Z,3
2022-11-19T13:12:54.673Z,2
2022-11-19T13:17:52.905Z,3
2022-11-19T13:22:52.913Z,2
2022-11-19T13:27:52.941Z,2
2022-11-19T13:32:53.802Z,2
2022-11-19T13:37:58.153Z,3
2022-11-19T13:43:10.395Z,2
2022-11-19T13:47:56.905Z,2
2022-11-19T13:52:53.612Z,3
2022-11-19T13:57:52.992Z,3
2022-11-19T14:02:53.006Z,2
2022-11-19T14:07:53.623Z,2
2022-11-19T14:12:53.030Z,4
2022-11-19T14:17:52.980Z,2
2022-11-19T14:22:53.861Z,2
2022-11-19T14:27:52.931Z,2
2022-11-19T14:32:52.910Z,2
2022-11-19T14:37:53.580Z,3
2022-11-19T14:42:52.425Z,3
2022-11-19T14:47:53.065Z,2
2022-11-19T14:52:52.476Z,2
2022-11-19T14:57:53.074Z,2
2022-11-19T15:02:53.056Z,2
2022-11-19T15:07:56.349Z,2
2022-11-19T15:12:53.236Z,2
2022-11-19T15:17:54.615Z,2
2022-11-19T15:22:53.125Z,2
2022-11-19T15:27:53.189Z,2
2022-11-19T15:32:53.156Z,1
2022-11-19T15:37:53.077Z,2
2022-11-19T15:42:52.580Z,2
2022-11-19T15:47:53.165Z,2
2022-11-19T15:52:53.079Z,2
2022-11-19T15:57:56.254Z,2
2022-11-19T16:02:53.226Z,2
2022-11-19T16:07:53.831Z,3
2022-11-19T16:12:53.812Z,2
2022-11-19T16:17:53.837Z,3
2022-11-19T16:22:53.129Z,3
2022-11-19T16:27:53.255Z,2
2022-11-19T16:32:53.233Z,2
2022-11-19T16:37:53.143Z,2
2022-11-19T16:42:52.669Z,3
2022-11-19T16:47:57.546Z,2
2022-11-19T16:52:53.153Z,3
2022-11-19T16:57:53.199Z,2
2022-11-19T17:02:52.721Z,2
2022-11-19T17:07:53.223Z,2
2022-11-19T17:12:53.221Z,2
2022-11-19T17:17:53.213Z,2
2022-11-19T17:22:53.226Z,3
2022-11-19T17:27:53.255Z,1
2022-11-19T17:32:53.330Z,2
2022-11-19T17:37:53.209Z,2
2022-11-19T17:42:53.488Z,2
2022-11-19T17:47:52.820Z,2
2022-11-19T17:52:52.773Z,3
2022-11-19T17:57:53.404Z,3
2022-11-19T18:02:53.400Z,2
2022-11-19T18:07:55.049Z,2
2022-11-19T18:12:53.449Z,2
2022-11-19T18:17:54.053Z,2
2022-11-19T18:22:54.106Z,2
2022-11-19T18:27:53.553Z,3
2022-11-19T18:32:53.432Z,3
2022-11-19T18:37:54.099Z,3
2022-11-19T18:42:53.469Z,2
2022-11-19T18:47:52.908Z,3
2022-11-19T18:52:52.876Z,2
2022-11-19T18:57:55.316Z,2
2022-11-19T19:02:53.523Z,2
2022-11-19T19:07:53.556Z,2
2022-11-19T19:12:53.533Z,2
2022-11-19T19:17:54.127Z,2
2022-11-19T19:22:54.162Z,2
2022-11-19T19:27:53.483Z,1
2022-11-19T19:32:53.104Z,2
2022-11-19T19:37:53.575Z,2
2022-11-19T19:42:52.951Z,2
2022-11-19T19:47:53.026Z,2
2022-11-19T19:52:54.212Z,2
2022-11-19T19:57:54.820Z,2
2022-11-19T20:02:53.495Z,2
2022-11-19T20:07:54.005Z,3
2022-11-19T20:12:53.026Z,2
2022-11-19T20:17:54.229Z,2
2022-11-19T20:22:54.277Z,2
2022-11-19T20:27:53.668Z,2
2022-11-19T20:32:54.141Z,2
2022-11-19T20:37:53.615Z,3
2022-11-19T20:42:53.073Z,2
2022-11-19T20:47:54.878Z,3
2022-11-19T20:52:53.833Z,2
2022-11-19T20:57:53.650Z,2
2022-11-19T21:02:53.824Z,2
2022-11-19T21:07:54.511Z,3
2022-11-19T21:12:54.330Z,3
2022-11-19T21:17:54.337Z,3
2022-11-19T21:22:53.117Z,4
2022-11-19T21:27:54.464Z,4
2022-11-19T21:32:53.770Z,2
2022-11-19T21:37:54.415Z,2
2022-11-19T21:42:53.234Z,3
2022-11-19T21:47:53.891Z,2
2022-11-19T21:52:53.246Z,2
2022-11-19T21:57:53.194Z,2
2022-11-19T22:02:54.314Z,2
2022-11-19T22:07:53.818Z,3
2022-11-19T22:12:54.420Z,3
2022-11-19T22:17:54.387Z,3
2022-11-19T22:22:53.964Z,4
2022-11-19T22:27:53.840Z,4
2022-11-19T22:32:53.809Z,3
2022-11-19T22:37:53.853Z,3
2022-11-19T22:42:53.283Z,3
2022-11-19T22:47:54.678Z,2
2022-11-19T22:52:53.305Z,2
2022-11-19T22:57:54.031Z,3
2022-11-19T23:02:54.020Z,3
2022-11-19T23:07:53.960Z,3
2022-11-19T23:12:53.334Z,3
2022-11-19T23:17:53.978Z,4
2022-11-19T23:22:54.002Z,4
2022-11-19T23:27:54.009Z,3
2022-11-19T23:32:54.864Z,2
2022-11-19T23:37:54.636Z,3
2022-11-19T23:42:54.736Z,3
2022-11-19T23:47:54.090Z,3
2022-11-19T23:52:53.485Z,3
2022-11-19T23:57:53.474Z,3
